Time;durP1;ratioP1;P1;durP2;ratioP2;P2;SDS_P1;SDS_P2;PMS_P1;PMS_P2;Temp;Humidity;BMP_temperature;BMP_pressure;BME280_temperature;BME280_humidity;BME280_pressure;Samples;Min_cycle;Max_cycle;Signal;HPM_P1;HPM_P2
2021/06/07 00:03:47;;;;;;;9.2;6.6;;;;;;;12.24;100;98862.36;;;;
2021/06/07 00:13:46;;;;;;;9.7;6.1;;;;;;;12.15;100;98869.64;;;;
2021/06/07 00:23:45;;;;;;;10.6;5.4;;;;;;;12.04;100;98877.22;;;;
2021/06/07 00:33:43;;;;;;;8.4;6;;;;;;;11.96;100;98867.95;;;;
2021/06/07 00:43:42;;;;;;;7.1;5.2;;;;;;;11.9;100;98862.98;;;;
2021/06/07 00:53:41;;;;;;;6.7;5.4;;;;;;;11.82;100;98864.53;;;;
2021/06/07 01:03:40;;;;;;;8.6;5.4;;;;;;;11.66;100;98868.69;;;;
2021/06/07 01:13:38;;;;;;;8.6;6.2;;;;;;;11.47;100;98865.36;;;;
2021/06/07 01:23:37;;;;;;;8.7;6.1;;;;;;;11.39;100;98855.28;;;;
2021/06/07 01:33:36;;;;;;;9.2;6;;;;;;;11.27;100;98860.44;;;;
2021/06/07 01:43:34;;;;;;;9.6;7.3;;;;;;;11.2;100;98860.06;;;;
2021/06/07 01:53:33;;;;;;;9.8;5.9;;;;;;;11.05;100;98855.8;;;;
2021/06/07 02:03:32;;;;;;;8.9;5.3;;;;;;;10.92;100;98849.34;;;;
2021/06/07 02:13:30;;;;;;;7.3;5.7;;;;;;;10.8;100;98849.05;;;;
2021/06/07 02:23:29;;;;;;;10.1;6.5;;;;;;;10.73;100;98837.88;;;;
2021/06/07 02:33:27;;;;;;;7.4;5.3;;;;;;;10.74;100;98842.18;;;;
2021/06/07 02:43:26;;;;;;;11.1;7.7;;;;;;;10.8;100;98853.64;;;;
2021/06/07 02:53:25;;;;;;;13;9.2;;;;;;;10.73;100;98850.56;;;;
2021/06/07 03:03:23;;;;;;;9.4;7.2;;;;;;;10.73;100;98856.75;;;;
2021/06/07 03:13:22;;;;;;;9.8;7.1;;;;;;;10.75;100;98861.86;;;;
2021/06/07 03:23:20;;;;;;;9;6.7;;;;;;;10.78;100;98869.34;;;;
2021/06/07 03:33:19;;;;;;;12.2;7.8;;;;;;;11.16;100;98880.65;;;;
2021/06/07 03:43:18;;;;;;;10.3;7;;;;;;;11.4;100;98879.28;;;;
2021/06/07 03:53:16;;;;;;;9.2;6.9;;;;;;;11.75;100;98880.36;;;;
2021/06/07 04:03:15;;;;;;;8.3;6;;;;;;;12.26;100;98887.16;;;;
2021/06/07 04:13:14;;;;;;;8.8;6;;;;;;;12.76;100;98880.37;;;;
2021/06/07 04:23:13;;;;;;;6.9;5.3;;;;;;;13.2;100;98897.5;;;;
2021/06/07 04:33:12;;;;;;;14.1;8.8;;;;;;;13.46;100;98912.67;;;;
2021/06/07 04:43:13;;;;;;;9.3;6.4;;;;;;;14.04;100;98887.75;;;;
2021/06/07 04:53:11;;;;;;;10.6;6.4;;;;;;;14.66;100;98899.99;;;;
2021/06/07 05:03:09;;;;;;;8.9;7.2;;;;;;;15.19;100;98916.47;;;;
2021/06/07 05:13:08;;;;;;;11.3;7.7;;;;;;;15.62;100;98918.13;;;;
2021/06/07 05:23:07;;;;;;;9.6;6;;;;;;;16.22;100;98912.89;;;;
2021/06/07 05:33:06;;;;;;;7.1;5.6;;;;;;;16.64;100;98923.66;;;;
2021/06/07 05:43:06;;;;;;;8;4.9;;;;;;;17.33;100;98928.95;;;;
2021/06/07 05:53:05;;;;;;;9;6.2;;;;;;;17.82;100;98929.66;;;;
2021/06/07 06:03:05;;;;;;;9;6.2;;;;;;;18.56;99.38281;98937.16;;;;
2021/06/07 06:13:04;;;;;;;12.2;8;;;;;;;18.7;100;98947.65;;;;
2021/06/07 06:23:04;;;;;;;11.8;8.3;;;;;;;19.07;99.23438;98949.74;;;;
2021/06/07 06:33:04;;;;;;;9.8;7;;;;;;;19.41;100;98945.47;;;;
2021/06/07 06:43:04;;;;;;;9.5;6.1;;;;;;;19.2;99.31738;98941.42;;;;
2021/06/07 06:53:03;;;;;;;10.2;7.9;;;;;;;19.46;98.79199;98947.14;;;;
2021/06/07 07:03:03;;;;;;;9.2;7.3;;;;;;;20.08;100;98957.84;;;;
2021/06/07 07:13:02;;;;;;;8.3;5.8;;;;;;;20.43;97.64453;98960.49;;;;
2021/06/07 07:23:02;;;;;;;11.6;5.7;;;;;;;20.81;96.46289;98969.76;;;;
2021/06/07 07:33:02;;;;;;;13.5;8.7;;;;;;;21.26;92.44336;98972.48;;;;
2021/06/07 07:43:02;;;;;;;14.6;8.8;;;;;;;21.08;88.12305;98972.17;;;;
2021/06/07 07:53:02;;;;;;;13.8;7.7;;;;;;;21.65;92.14063;98980.49;;;;
2021/06/07 08:03:02;;;;;;;9.5;5.8;;;;;;;21.95;82.55273;98970.33;;;;
2021/06/07 08:13:02;;;;;;;9.3;4.8;;;;;;;22.38;81.84668;98969.67;;;;
2021/06/07 08:23:02;;;;;;;6;4.6;;;;;;;22.36;71.31641;98973.94;;;;
2021/06/07 08:33:02;;;;;;;5.6;3.9;;;;;;;22.63;71.89355;98980.13;;;;
2021/06/07 08:43:02;;;;;;;9.2;5.1;;;;;;;22.64;69.74609;98962.45;;;;
2021/06/07 08:53:02;;;;;;;9.2;3.9;;;;;;;23.09;65.38086;98967.59;;;;
2021/06/07 09:03:03;;;;;;;5.3;3.2;;;;;;;23.02;65.70801;98962.04;;;;
2021/06/07 09:13:04;;;;;;;4;2.9;;;;;;;23.4;58.35352;98960.74;;;;
2021/06/07 09:23:05;;;;;;;5.4;2.8;;;;;;;23.59;54.53223;98955.01;;;;
2021/06/07 09:33:03;;;;;;;5;2.2;;;;;;;24.31;52.27539;98952.19;;;;
2021/06/07 09:43:04;;;;;;;3.6;1.9;;;;;;;24.55;41.64453;98947.9;;;;
2021/06/07 09:53:04;;;;;;;8.6;2.5;;;;;;;24.16;40.54883;98944.28;;;;
2021/06/07 10:03:04;;;;;;;3.6;1.9;;;;;;;23.87;38.08887;98940.59;;;;
2021/06/07 10:13:05;;;;;;;6;2.2;;;;;;;24.13;39.38184;98943.07;;;;
2021/06/07 10:23:05;;;;;;;4.1;2.4;;;;;;;24.28;40.27832;98943.91;;;;
2021/06/07 10:33:05;;;;;;;7.8;2.2;;;;;;;24.3;40.39746;98930.52;;;;
2021/06/07 10:43:06;;;;;;;5.4;2.9;;;;;;;24.44;41.08105;98931.34;;;;
2021/06/07 10:53:06;;;;;;;4.5;2.7;;;;;;;24.46;41.77832;98923.49;;;;
2021/06/07 11:03:06;;;;;;;4.9;2.5;;;;;;;24.67;39.77051;98919.18;;;;
2021/06/07 11:13:07;;;;;;;3.8;1.8;;;;;;;24.55;40.45605;98910.11;;;;
2021/06/07 11:23:07;;;;;;;4.6;2.2;;;;;;;24.64;39.17969;98911.7;;;;
2021/06/07 11:33:08;;;;;;;4.9;2.6;;;;;;;24.25;38.53418;98895.91;;;;
2021/06/07 11:43:08;;;;;;;3.8;2.4;;;;;;;24.73;39.56445;98890.03;;;;
2021/06/07 11:53:15;;;;;;;4.1;2;;;;;;;25.14;40.02539;98884.89;;;;
2021/06/07 12:03:09;;;;;;;5.6;3.2;;;;;;;25.55;40.69922;98877.72;;;;
2021/06/07 12:13:19;;;;;;;7.1;2.4;;;;;;;25.58;37.3252;98874.19;;;;
2021/06/07 12:23:09;;;;;;;4;1.9;;;;;;;25.57;36.5332;98867.08;;;;
2021/06/07 12:33:10;;;;;;;4.1;2.1;;;;;;;25.41;40.22656;98863.93;;;;
2021/06/07 12:43:10;;;;;;;4.4;2.4;;;;;;;25.2;39.91309;98855.74;;;;
2021/06/07 12:53:11;;;;;;;7;2.4;;;;;;;25.96;38.37402;98853.86;;;;
2021/06/07 13:03:11;;;;;;;7.9;3.1;;;;;;;25.45;37.20801;98864.71;;;;
2021/06/07 13:13:12;;;;;;;6.3;2.6;;;;;;;25.79;37.2832;98857.5;;;;
2021/06/07 13:23:12;;;;;;;5.4;2.5;;;;;;;25.82;37.01465;98848.44;;;;
2021/06/07 13:33:12;;;;;;;3;1.8;;;;;;;26.24;38.01855;98841.11;;;;
2021/06/07 13:43:16;;;;;;;5.1;2.2;;;;;;;26.47;36.52344;98835.79;;;;
2021/06/07 13:53:13;;;;;;;5.5;2.3;;;;;;;26.49;34.66602;98830.63;;;;
2021/06/07 14:03:14;;;;;;;4.3;2.2;;;;;;;26.8;34.78516;98821.27;;;;
2021/06/07 14:13:14;;;;;;;3.5;2;;;;;;;26.88;34.94531;98800.68;;;;
2021/06/07 14:33:15;;;;;;;4;1.9;;;;;;;27.07;35.00684;98790.22;;;;
2021/06/07 14:43:16;;;;;;;5.2;2.5;;;;;;;27.46;33.42285;98780.25;;;;
2021/06/07 14:53:16;;;;;;;4.6;2.3;;;;;;;27.63;33.00684;98781.22;;;;
2021/06/07 15:03:17;;;;;;;8.7;3;;;;;;;29.75;30.06934;98771.91;;;;
2021/06/07 15:13:18;;;;;;;3.9;1.9;;;;;;;31.63;26.8457;98770.64;;;;
2021/06/07 15:23:19;;;;;;;5.3;2.3;;;;;;;32.58;24.72266;98749.27;;;;
2021/06/07 15:33:22;;;;;;;4.4;1.5;;;;;;;33.49;24.05957;98752.8;;;;
2021/06/07 15:43:22;;;;;;;24.8;17.2;;;;;;;33.55;23.79785;98743.36;;;;
2021/06/07 15:53:24;;;;;;;6.2;4.2;;;;;;;33.43;22.59668;98730.23;;;;
2021/06/07 16:03:25;;;;;;;4.8;1.4;;;;;;;34.07;21.76953;98727.73;;;;
2021/06/07 16:13:27;;;;;;;19.5;14.3;;;;;;;34.22;21.77734;98729.53;;;;
2021/06/07 16:23:28;;;;;;;12.3;9.6;;;;;;;34.5;22.64941;98730.34;;;;
2021/06/07 16:33:30;;;;;;;10.7;7.6;;;;;;;35.14;21.00879;98728.34;;;;
2021/06/07 16:43:32;;;;;;;5.2;2.6;;;;;;;35.19;21.58105;98733.33;;;;
2021/06/07 16:53:34;;;;;;;4.9;1.3;;;;;;;34.72;21.09863;98730.21;;;;
2021/06/07 17:03:35;;;;;;;4.1;1.8;;;;;;;33.59;21.72266;98727.23;;;;
2021/06/07 17:13:37;;;;;;;5.1;2.3;;;;;;;29.57;25.8623;98712.42;;;;
2021/06/07 17:23:38;;;;;;;12.9;5.9;;;;;;;27.82;28.2168;98705.77;;;;
2021/06/07 17:33:39;;;;;;;6.8;2.6;;;;;;;29.64;26.82324;98713.05;;;;
2021/06/07 17:43:40;;;;;;;7.4;3.9;;;;;;;31.02;26.12598;98712.34;;;;
2021/06/07 17:53:41;;;;;;;5.4;2.6;;;;;;;31.71;25.30078;98715.47;;;;
2021/06/07 18:03:42;;;;;;;4;2.1;;;;;;;29.69;30.99707;98717.3;;;;
2021/06/07 18:19:30;;;;;;;8.2;3.1;;;;;;;25.05;42.99805;98717.08;;;;
2021/06/07 18:29:30;;;;;;;5.7;2.5;;;;;;;23.26;42.4873;98718.63;;;;
2021/06/07 18:39:30;;;;;;;4.9;2.7;;;;;;;21.65;48.54785;98719.89;;;;
2021/06/07 18:49:30;;;;;;;10.2;3.6;;;;;;;20.41;53.50684;98723.83;;;;
2021/06/07 18:59:30;;;;;;;10.3;4;;;;;;;19.39;57.3584;98739.22;;;;
2021/06/07 19:09:29;;;;;;;9.8;5.4;;;;;;;18.48;62.78418;98744.3;;;;
2021/06/07 19:19:29;;;;;;;8.8;6.9;;;;;;;17.64;67.15332;98765.59;;;;
2021/06/07 19:29:28;;;;;;;14.2;8.3;;;;;;;17.25;66.88672;98775.39;;;;
2021/06/07 19:39:28;;;;;;;15.4;7.7;;;;;;;16.82;69.04883;98775.31;;;;
2021/06/07 19:49:27;;;;;;;16.5;9.1;;;;;;;16.27;69.08887;98778.63;;;;
2021/06/07 19:59:26;;;;;;;13.2;8.1;;;;;;;15.75;71.38867;98781.97;;;;
2021/06/07 20:09:25;;;;;;;13.2;10.3;;;;;;;15.31;75.89453;98779.95;;;;
2021/06/07 20:19:25;;;;;;;25;17.5;;;;;;;14.96;74.62793;98782.97;;;;
2021/06/07 20:29:24;;;;;;;17.7;12.9;;;;;;;14.59;77.43457;98798.23;;;;
2021/06/07 20:39:23;;;;;;;16.2;10.2;;;;;;;14.31;79.25;98788.94;;;;
2021/06/07 20:49:22;;;;;;;13.5;8.2;;;;;;;14.07;77.37793;98791.44;;;;
2021/06/07 20:59:21;;;;;;;11.4;6.1;;;;;;;13.71;79.34766;98794.57;;;;
2021/06/07 21:09:20;;;;;;;15;5.8;;;;;;;13.65;85.39551;98803.99;;;;
2021/06/07 21:19:18;;;;;;;10.5;6.8;;;;;;;13.46;91.15332;98803.56;;;;
2021/06/07 21:29:17;;;;;;;9.4;6.5;;;;;;;13.23;87.28223;98807.54;;;;
2021/06/07 21:39:16;;;;;;;12.1;6.2;;;;;;;13.12;92.40527;98819.83;;;;
2021/06/07 21:49:15;;;;;;;14.9;8.1;;;;;;;13;94.74023;98813.09;;;;
2021/06/07 21:59:15;;;;;;;8.2;6.3;;;;;;;12.86;98.97168;98811.64;;;;
2021/06/07 22:09:13;;;;;;;9.6;6.2;;;;;;;12.76;97.38281;98811.95;;;;
2021/06/07 22:19:12;;;;;;;11.8;7.2;;;;;;;12.59;97.75098;98810.02;;;;
2021/06/07 22:29:10;;;;;;;11.5;5.2;;;;;;;12.44;96.70605;98813.95;;;;
2021/06/07 22:39:09;;;;;;;8.4;6.6;;;;;;;12.29;99.5293;98821.67;;;;
2021/06/07 22:49:08;;;;;;;9.9;6.8;;;;;;;12.14;100;98805.89;;;;
2021/06/07 22:59:07;;;;;;;9.3;7.2;;;;;;;12.11;100;98812.73;;;;
2021/06/07 23:09:06;;;;;;;10.3;8.1;;;;;;;12.01;100;98808.38;;;;
2021/06/07 23:19:04;;;;;;;8.3;6;;;;;;;11.87;100;98804.97;;;;
2021/06/07 23:29:03;;;;;;;10;6.6;;;;;;;11.75;100;98793.16;;;;
2021/06/07 23:39:02;;;;;;;8.4;6.6;;;;;;;11.61;100;98801.31;;;;
2021/06/07 23:49:00;;;;;;;9.5;6.1;;;;;;;11.44;100;98802;;;;
2021/06/07 23:58:59;;;;;;;10.4;7;;;;;;;11.3;100;98798.57;;;;
